Hafnia Victoria — 9V3232 — position and weather

sailwx.info

Track history (hours):
 
Tides and Currents Weather Stations Pressure Air Temp Water Temp Dewpoint Dewpoint Depression Visibility Wind Speed Wind Dir Waves Ship Positions

Hafnia Victoria

Last reported at 2018-Apr-19 04:01 UTC. Time now 2018-Apr-20 11:03 UTC.
Position N 38°08' W 011°36'.

Length 182 m; draft 9.4 m.

Type: Ship. MMSI: 566024000.

Date/timePositionNaut miles runAvg speedWind from/ knotsBaromVisibWave heightAir tempDewpointWater temp
2018-Apr-19 04:01N 38°08' W 011°36'011.5
2018-Apr-19 04:00N 38°08' W 011°36'90 2.9
2018-Apr-17 20:55N 36°41' W 012°09'4 6.1
2018-Apr-17 20:15N 36°37' W 012°07'512.0
2018-Apr-17 19:51N 36°33' W 012°09'612.0
2018-Apr-17 19:22N 36°27' W 012°11'49012.1
2018-Apr-16 02:40N 28°34' W 014°45'211.5
2018-Apr-16 02:31N 28°33' W 014°46'611.5
2018-Apr-16 02:00N 28°27' W 014°48'611.4
2018-Apr-16 01:31N 28°22' W 014°50'612.0
2018-Apr-16 01:01N 28°16' W 014°52'612.0
2018-Apr-16 00:31N 28°10' W 014°54'611.6
2018-Apr-16 00:01N 28°05' W 014°56'611.7
2018-Apr-15 23:30N 27°59' W 014°58'611.7
2018-Apr-15 23:00N 27°53' W 014°60'611.6
2018-Apr-15 22:30N 27°48' W 015°02'611.6
2018-Apr-15 22:01N 27°43' W 015°04'611.3
2018-Apr-15 21:29N 27°37' W 015°07'  
Track history (hours):
 
Tides and Currents Weather Stations Pressure Air Temp Water Temp Dewpoint Dewpoint Depression Visibility Wind Speed Wind Dir Waves Ship Positions

Hafnia Victoria

Last reported at 2018-Apr-19 04:01 UTC. Time now 2018-Apr-20 11:03 UTC.
Position N 38°08' W 011°36'.

Length 182 m; draft 9.4 m.

Type: Ship. MMSI: 566024000.

Date/timePositionNaut miles runAvg speedWind from/ knotsBaromVisibWave heightAir tempDewpointWater temp
2018-Apr-19 04:01N 38°08' W 011°36'011.5
2018-Apr-19 04:00N 38°08' W 011°36'90 2.9
2018-Apr-17 20:55N 36°41' W 012°09'4 6.1
2018-Apr-17 20:15N 36°37' W 012°07'512.0
2018-Apr-17 19:51N 36°33' W 012°09'612.0
2018-Apr-17 19:22N 36°27' W 012°11'49012.1
2018-Apr-16 02:40N 28°34' W 014°45'211.5
2018-Apr-16 02:31N 28°33' W 014°46'611.5
2018-Apr-16 02:00N 28°27' W 014°48'611.4
2018-Apr-16 01:31N 28°22' W 014°50'612.0
2018-Apr-16 01:01N 28°16' W 014°52'612.0
2018-Apr-16 00:31N 28°10' W 014°54'611.6
2018-Apr-16 00:01N 28°05' W 014°56'611.7
2018-Apr-15 23:30N 27°59' W 014°58'611.7
2018-Apr-15 23:00N 27°53' W 014°60'611.6
2018-Apr-15 22:30N 27°48' W 015°02'611.6
2018-Apr-15 22:01N 27°43' W 015°04'611.3
2018-Apr-15 21:29N 27°37' W 015°07'  

Dump ship's entire track history